Terminal Aerodrome Forecast
Issued by NWS Jackson, KY

Home | Current Version | Previous Version | Text Only | Print | Product List | Glossary On
Versions: 1 2 3 4 5 6 7 8 9 10 11 12 13 14 15 16
447
FTUS43 KJKL 281734
TAFLOZ
TAF
KLOZ 281734Z 2818/2918 23009G17KT P6SM SKC
     FM282300 30005KT P6SM BKN120
     FM290300 29003KT 6SM -SHRA BR BKN010 OVC060
     FM290600 28003KT 2SM BR VCSH OVC009
     FM291400 30004KT P6SM VCSH BKN015=

USA.gov is the U.S. government's official web portal to all federal, state and local government web resources and services.